sensor_id;sensor_type;location;lat;lon;timestamp;P1;durP1;ratioP1;P2;durP2;ratioP2
31378;SDS011;61664;48.112;11.662;2023-09-12T00:02:14;6.40;;;5.97;;
31378;SDS011;61664;48.112;11.662;2023-09-12T00:04:41;6.03;;;5.63;;
31378;SDS011;61664;48.112;11.662;2023-09-12T00:07:08;6.00;;;5.60;;
31378;SDS011;61664;48.112;11.662;2023-09-12T00:09:35;5.90;;;5.50;;
31378;SDS011;61664;48.112;11.662;2023-09-12T00:12:02;6.15;;;5.35;;
31378;SDS011;61664;48.112;11.662;2023-09-12T00:14:30;5.40;;;5.00;;
31378;SDS011;61664;48.112;11.662;2023-09-12T00:16:57;5.55;;;5.15;;
31378;SDS011;61664;48.112;11.662;2023-09-12T00:19:24;5.68;;;5.28;;
31378;SDS011;61664;48.112;11.662;2023-09-12T00:21:50;5.93;;;5.55;;
31378;SDS011;61664;48.112;11.662;2023-09-12T00:24:19;4.97;;;4.68;;
31378;SDS011;61664;48.112;11.662;2023-09-12T00:26:46;5.50;;;5.10;;
31378;SDS011;61664;48.112;11.662;2023-09-12T00:29:13;5.97;;;5.50;;
31378;SDS011;61664;48.112;11.662;2023-09-12T00:31:40;6.63;;;5.15;;
31378;SDS011;61664;48.112;11.662;2023-09-12T00:34:07;5.57;;;5.18;;
31378;SDS011;61664;48.112;11.662;2023-09-12T00:36:34;5.43;;;5.05;;
31378;SDS011;61664;48.112;11.662;2023-09-12T00:39:03;5.22;;;4.93;;
31378;SDS011;61664;48.112;11.662;2023-09-12T00:41:30;5.70;;;5.20;;
31378;SDS011;61664;48.112;11.662;2023-09-12T00:44:00;5.75;;;5.32;;
31378;SDS011;61664;48.112;11.662;2023-09-12T00:46:27;5.45;;;5.07;;
31378;SDS011;61664;48.112;11.662;2023-09-12T00:48:55;5.95;;;5.45;;
31378;SDS011;61664;48.112;11.662;2023-09-12T00:51:25;5.40;;;5.00;;
31378;SDS011;61664;48.112;11.662;2023-09-12T00:53:53;5.25;;;4.95;;
31378;SDS011;61664;48.112;11.662;2023-09-12T00:56:21;5.22;;;4.85;;
31378;SDS011;61664;48.112;11.662;2023-09-12T00:58:48;5.95;;;5.40;;
31378;SDS011;61664;48.112;11.662;2023-09-12T01:01:18;5.45;;;5.05;;
31378;SDS011;61664;48.112;11.662;2023-09-12T01:03:47;5.60;;;5.20;;
31378;SDS011;61664;48.112;11.662;2023-09-12T01:06:14;6.00;;;5.45;;
31378;SDS011;61664;48.112;11.662;2023-09-12T01:08:46;5.28;;;4.88;;
31378;SDS011;61664;48.112;11.662;2023-09-12T01:11:13;5.30;;;5.00;;
31378;SDS011;61664;48.112;11.662;2023-09-12T01:13:40;6.10;;;5.50;;
31378;SDS011;61664;48.112;11.662;2023-09-12T01:16:07;5.80;;;5.32;;
31378;SDS011;61664;48.112;11.662;2023-09-12T01:18:34;5.50;;;5.10;;
31378;SDS011;61664;48.112;11.662;2023-09-12T01:21:06;5.55;;;5.15;;
31378;SDS011;61664;48.112;11.662;2023-09-12T01:28:54;6.53;;;5.93;;
31378;SDS011;61664;48.112;11.662;2023-09-12T01:31:24;5.55;;;5.15;;
31378;SDS011;61664;48.112;11.662;2023-09-12T01:33:56;6.00;;;5.60;;
31378;SDS011;61664;48.112;11.662;2023-09-12T01:36:24;5.40;;;5.10;;
31378;SDS011;61664;48.112;11.662;2023-09-12T01:38:50;5.22;;;4.93;;
31378;SDS011;61664;48.112;11.662;2023-09-12T01:41:18;4.93;;;4.60;;
31378;SDS011;61664;48.112;11.662;2023-09-12T01:43:45;6.43;;;5.93;;
31378;SDS011;61664;48.112;11.662;2023-09-12T01:46:16;6.18;;;5.22;;
31378;SDS011;61664;48.112;11.662;2023-09-12T01:48:46;5.25;;;4.95;;
31378;SDS011;61664;48.112;11.662;2023-09-12T01:51:18;4.63;;;4.22;;
31378;SDS011;61664;48.112;11.662;2023-09-12T01:53:45;4.95;;;4.65;;
31378;SDS011;61664;48.112;11.662;2023-09-12T01:56:15;4.43;;;4.13;;
31378;SDS011;61664;48.112;11.662;2023-09-12T01:58:45;4.90;;;4.57;;
31378;SDS011;61664;48.112;11.662;2023-09-12T02:01:12;5.50;;;5.10;;
31378;SDS011;61664;48.112;11.662;2023-09-12T02:03:40;4.57;;;4.28;;
31378;SDS011;61664;48.112;11.662;2023-09-12T02:06:07;4.75;;;4.45;;
31378;SDS011;61664;48.112;11.662;2023-09-12T02:08:34;4.50;;;4.25;;
31378;SDS011;61664;48.112;11.662;2023-09-12T02:11:01;5.07;;;4.78;;
31378;SDS011;61664;48.112;11.662;2023-09-12T02:13:28;5.20;;;4.78;;
31378;SDS011;61664;48.112;11.662;2023-09-12T02:15:59;4.45;;;4.15;;
31378;SDS011;61664;48.112;11.662;2023-09-12T02:18:27;5.18;;;4.70;;
31378;SDS011;61664;48.112;11.662;2023-09-12T02:20:54;6.30;;;4.70;;
31378;SDS011;61664;48.112;11.662;2023-09-12T02:23:21;4.80;;;4.50;;
31378;SDS011;61664;48.112;11.662;2023-09-12T02:25:48;4.97;;;4.68;;
31378;SDS011;61664;48.112;11.662;2023-09-12T02:28:15;5.05;;;4.75;;
31378;SDS011;61664;48.112;11.662;2023-09-12T02:30:42;4.63;;;4.32;;
31378;SDS011;61664;48.112;11.662;2023-09-12T02:33:09;4.82;;;4.43;;
31378;SDS011;61664;48.112;11.662;2023-09-12T02:35:36;4.97;;;4.65;;
31378;SDS011;61664;48.112;11.662;2023-09-12T02:38:03;5.28;;;4.88;;
31378;SDS011;61664;48.112;11.662;2023-09-12T02:40:30;4.85;;;4.55;;
31378;SDS011;61664;48.112;11.662;2023-09-12T02:42:57;5.25;;;4.85;;
31378;SDS011;61664;48.112;11.662;2023-09-12T02:45:23;5.15;;;4.75;;
31378;SDS011;61664;48.112;11.662;2023-09-12T02:47:50;4.53;;;4.22;;
31378;SDS011;61664;48.112;11.662;2023-09-12T02:50:17;6.00;;;5.38;;
31378;SDS011;61664;48.112;11.662;2023-09-12T02:52:44;5.15;;;4.75;;
31378;SDS011;61664;48.112;11.662;2023-09-12T02:55:11;4.80;;;4.50;;
31378;SDS011;61664;48.112;11.662;2023-09-12T02:57:39;5.03;;;4.72;;
31378;SDS011;61664;48.112;11.662;2023-09-12T03:00:06;4.80;;;4.55;;
31378;SDS011;61664;48.112;11.662;2023-09-12T03:02:35;5.28;;;4.88;;
31378;SDS011;61664;48.112;11.662;2023-09-12T03:05:02;5.53;;;5.03;;
31378;SDS011;61664;48.112;11.662;2023-09-12T03:07:29;5.05;;;4.75;;
31378;SDS011;61664;48.112;11.662;2023-09-12T03:09:56;5.10;;;4.80;;
31378;SDS011;61664;48.112;11.662;2023-09-12T03:12:23;4.82;;;4.53;;
31378;SDS011;61664;48.112;11.662;2023-09-12T03:14:50;5.45;;;5.05;;
31378;SDS011;61664;48.112;11.662;2023-09-12T03:17:17;5.30;;;4.90;;
31378;SDS011;61664;48.112;11.662;2023-09-12T03:19:44;4.60;;;4.30;;
31378;SDS011;61664;48.112;11.662;2023-09-12T03:22:11;5.03;;;4.72;;
31378;SDS011;61664;48.112;11.662;2023-09-12T03:24:38;4.95;;;4.65;;
31378;SDS011;61664;48.112;11.662;2023-09-12T03:27:06;5.15;;;4.85;;
31378;SDS011;61664;48.112;11.662;2023-09-12T03:29:34;4.80;;;4.53;;
31378;SDS011;61664;48.112;11.662;2023-09-12T03:32:01;4.40;;;4.10;;
31378;SDS011;61664;48.112;11.662;2023-09-12T03:34:28;4.97;;;4.68;;
31378;SDS011;61664;48.112;11.662;2023-09-12T03:36:55;4.88;;;4.50;;
31378;SDS011;61664;48.112;11.662;2023-09-12T03:39:22;5.30;;;5.00;;
31378;SDS011;61664;48.112;11.662;2023-09-12T03:41:49;4.90;;;4.60;;
31378;SDS011;61664;48.112;11.662;2023-09-12T03:44:16;5.15;;;4.85;;
31378;SDS011;61664;48.112;11.662;2023-09-12T03:46:43;4.90;;;4.60;;
31378;SDS011;61664;48.112;11.662;2023-09-12T03:49:10;5.50;;;4.75;;
31378;SDS011;61664;48.112;11.662;2023-09-12T03:51:36;5.13;;;4.72;;
31378;SDS011;61664;48.112;11.662;2023-09-12T03:54:04;4.85;;;4.57;;
31378;SDS011;61664;48.112;11.662;2023-09-12T03:56:31;4.10;;;3.90;;
31378;SDS011;61664;48.112;11.662;2023-09-12T03:58:58;5.10;;;4.78;;
31378;SDS011;61664;48.112;11.662;2023-09-12T04:01:26;4.53;;;4.22;;
31378;SDS011;61664;48.112;11.662;2023-09-12T04:03:54;5.28;;;4.85;;
31378;SDS011;61664;48.112;11.662;2023-09-12T04:06:21;5.40;;;5.00;;
31378;SDS011;61664;48.112;11.662;2023-09-12T04:08:48;5.68;;;5.30;;
31378;SDS011;61664;48.112;11.662;2023-09-12T04:11:15;4.82;;;4.53;;
31378;SDS011;61664;48.112;11.662;2023-09-12T04:13:48;6.00;;;5.10;;
31378;SDS011;61664;48.112;11.662;2023-09-12T04:16:15;4.63;;;4.32;;
31378;SDS011;61664;48.112;11.662;2023-09-12T04:18:42;4.97;;;4.57;;
31378;SDS011;61664;48.112;11.662;2023-09-12T04:21:11;5.40;;;5.03;;
31378;SDS011;61664;48.112;11.662;2023-09-12T04:23:37;5.35;;;4.72;;
31378;SDS011;61664;48.112;11.662;2023-09-12T04:26:04;4.50;;;4.20;;
31378;SDS011;61664;48.112;11.662;2023-09-12T04:28:31;4.63;;;4.32;;
31378;SDS011;61664;48.112;11.662;2023-09-12T04:31:02;5.75;;;5.32;;
31378;SDS011;61664;48.112;11.662;2023-09-12T04:33:29;5.13;;;4.40;;
31378;SDS011;61664;48.112;11.662;2023-09-12T04:35:57;4.88;;;4.57;;
31378;SDS011;61664;48.112;11.662;2023-09-12T04:38:27;4.72;;;4.32;;
31378;SDS011;61664;48.112;11.662;2023-09-12T04:40:54;5.20;;;4.70;;
31378;SDS011;61664;48.112;11.662;2023-09-12T04:43:31;4.60;;;4.30;;
31378;SDS011;61664;48.112;11.662;2023-09-12T04:45:58;4.72;;;4.43;;
31378;SDS011;61664;48.112;11.662;2023-09-12T04:48:27;4.90;;;4.47;;
31378;SDS011;61664;48.112;11.662;2023-09-12T04:50:54;4.63;;;4.32;;
31378;SDS011;61664;48.112;11.662;2023-09-12T04:53:22;4.78;;;4.47;;
31378;SDS011;61664;48.112;11.662;2023-09-12T04:55:51;4.10;;;3.90;;
31378;SDS011;61664;48.112;11.662;2023-09-12T04:58:19;4.90;;;4.60;;
31378;SDS011;61664;48.112;11.662;2023-09-12T05:00:46;5.00;;;4.68;;
31378;SDS011;61664;48.112;11.662;2023-09-12T05:03:14;5.75;;;4.90;;
31378;SDS011;61664;48.112;11.662;2023-09-12T05:05:41;4.65;;;4.35;;
31378;SDS011;61664;48.112;11.662;2023-09-12T05:08:08;4.82;;;4.53;;
31378;SDS011;61664;48.112;11.662;2023-09-12T05:10:35;4.72;;;4.43;;
31378;SDS011;61664;48.112;11.662;2023-09-12T05:13:02;4.93;;;4.63;;
31378;SDS011;61664;48.112;11.662;2023-09-12T05:15:29;5.80;;;4.40;;
31378;SDS011;61664;48.112;11.662;2023-09-12T05:17:56;5.28;;;4.88;;
31378;SDS011;61664;48.112;11.662;2023-09-12T05:20:23;5.32;;;4.93;;
31378;SDS011;61664;48.112;11.662;2023-09-12T05:22:50;5.10;;;4.70;;
31378;SDS011;61664;48.112;11.662;2023-09-12T05:25:17;5.53;;;5.13;;
31378;SDS011;61664;48.112;11.662;2023-09-12T05:27:44;4.93;;;4.47;;
31378;SDS011;61664;48.112;11.662;2023-09-12T05:30:11;5.13;;;4.68;;
31378;SDS011;61664;48.112;11.662;2023-09-12T05:32:38;5.65;;;5.10;;
31378;SDS011;61664;48.112;11.662;2023-09-12T05:35:07;5.47;;;5.07;;
31378;SDS011;61664;48.112;11.662;2023-09-12T05:37:46;4.93;;;4.63;;
31378;SDS011;61664;48.112;11.662;2023-09-12T05:40:14;5.38;;;4.88;;
31378;SDS011;61664;48.112;11.662;2023-09-12T05:42:41;5.25;;;4.88;;
31378;SDS011;61664;48.112;11.662;2023-09-12T05:45:08;5.32;;;4.90;;
31378;SDS011;61664;48.112;11.662;2023-09-12T05:47:35;5.53;;;5.03;;
31378;SDS011;61664;48.112;11.662;2023-09-12T05:50:02;5.32;;;4.97;;
31378;SDS011;61664;48.112;11.662;2023-09-12T05:52:33;5.78;;;5.38;;
31378;SDS011;61664;48.112;11.662;2023-09-12T05:55:00;4.50;;;4.18;;
31378;SDS011;61664;48.112;11.662;2023-09-12T05:57:27;5.47;;;4.97;;
31378;SDS011;61664;48.112;11.662;2023-09-12T05:59:54;5.50;;;5.10;;
31378;SDS011;61664;48.112;11.662;2023-09-12T06:02:21;4.38;;;4.07;;
31378;SDS011;61664;48.112;11.662;2023-09-12T06:04:48;4.93;;;4.55;;
31378;SDS011;61664;48.112;11.662;2023-09-12T06:07:15;5.00;;;4.70;;
31378;SDS011;61664;48.112;11.662;2023-09-12T06:09:42;4.30;;;4.03;;
31378;SDS011;61664;48.112;11.662;2023-09-12T06:12:09;5.45;;;5.00;;
31378;SDS011;61664;48.112;11.662;2023-09-12T06:14:36;6.07;;;5.40;;
31378;SDS011;61664;48.112;11.662;2023-09-12T06:17:03;6.43;;;4.90;;
31378;SDS011;61664;48.112;11.662;2023-09-12T06:19:30;5.53;;;5.07;;
31378;SDS011;61664;48.112;11.662;2023-09-12T06:21:57;5.57;;;5.05;;
31378;SDS011;61664;48.112;11.662;2023-09-12T06:24:25;5.20;;;4.80;;
31378;SDS011;61664;48.112;11.662;2023-09-12T06:26:52;6.25;;;5.07;;
31378;SDS011;61664;48.112;11.662;2023-09-12T06:29:19;5.93;;;5.35;;
31378;SDS011;61664;48.112;11.662;2023-09-12T06:31:46;5.95;;;4.50;;
31378;SDS011;61664;48.112;11.662;2023-09-12T06:34:13;5.85;;;5.35;;
31378;SDS011;61664;48.112;11.662;2023-09-12T06:36:40;5.53;;;5.03;;
31378;SDS011;61664;48.112;11.662;2023-09-12T06:41:38;4.57;;;4.18;;
31378;SDS011;61664;48.112;11.662;2023-09-12T06:44:05;5.00;;;4.60;;
31378;SDS011;61664;48.112;11.662;2023-09-12T06:46:33;5.07;;;4.55;;
31378;SDS011;61664;48.112;11.662;2023-09-12T06:49:02;5.28;;;4.78;;
31378;SDS011;61664;48.112;11.662;2023-09-12T06:51:29;5.85;;;5.10;;
31378;SDS011;61664;48.112;11.662;2023-09-12T06:54:02;5.07;;;4.78;;
31378;SDS011;61664;48.112;11.662;2023-09-12T06:56:29;5.30;;;4.90;;
31378;SDS011;61664;48.112;11.662;2023-09-12T06:58:56;4.93;;;4.63;;
31378;SDS011;61664;48.112;11.662;2023-09-12T07:01:24;5.90;;;5.50;;
31378;SDS011;61664;48.112;11.662;2023-09-12T07:03:51;5.85;;;5.43;;
31378;SDS011;61664;48.112;11.662;2023-09-12T07:06:20;5.63;;;5.03;;
31378;SDS011;61664;48.112;11.662;2023-09-12T07:08:47;5.63;;;5.22;;
31378;SDS011;61664;48.112;11.662;2023-09-12T07:11:14;6.53;;;5.30;;
31378;SDS011;61664;48.112;11.662;2023-09-12T07:13:41;8.32;;;5.43;;
31378;SDS011;61664;48.112;11.662;2023-09-12T07:16:09;5.05;;;4.63;;
31378;SDS011;61664;48.112;11.662;2023-09-12T07:18:36;7.05;;;5.25;;
31378;SDS011;61664;48.112;11.662;2023-09-12T07:21:04;5.70;;;5.07;;
31378;SDS011;61664;48.112;11.662;2023-09-12T07:23:32;5.60;;;5.10;;
31378;SDS011;61664;48.112;11.662;2023-09-12T07:25:59;5.90;;;5.35;;
31378;SDS011;61664;48.112;11.662;2023-09-12T07:28:27;6.03;;;5.45;;
31378;SDS011;61664;48.112;11.662;2023-09-12T07:30:54;5.60;;;5.10;;
31378;SDS011;61664;48.112;11.662;2023-09-12T07:33:22;7.05;;;5.05;;
31378;SDS011;61664;48.112;11.662;2023-09-12T07:35:51;6.10;;;5.65;;
31378;SDS011;61664;48.112;11.662;2023-09-12T07:38:19;6.35;;;5.88;;
31378;SDS011;61664;48.112;11.662;2023-09-12T07:40:47;5.18;;;4.85;;
31378;SDS011;61664;48.112;11.662;2023-09-12T07:43:15;5.43;;;4.50;;
31378;SDS011;61664;48.112;11.662;2023-09-12T07:45:42;5.47;;;5.07;;
31378;SDS011;61664;48.112;11.662;2023-09-12T07:48:09;6.10;;;4.93;;
31378;SDS011;61664;48.112;11.662;2023-09-12T07:50:37;5.25;;;4.75;;
31378;SDS011;61664;48.112;11.662;2023-09-12T07:53:05;5.07;;;4.78;;
31378;SDS011;61664;48.112;11.662;2023-09-12T07:55:38;5.43;;;5.03;;
31378;SDS011;61664;48.112;11.662;2023-09-12T07:58:13;5.07;;;4.57;;
31378;SDS011;61664;48.112;11.662;2023-09-12T08:00:41;5.00;;;4.47;;
31378;SDS011;61664;48.112;11.662;2023-09-12T08:03:08;5.05;;;4.75;;
31378;SDS011;61664;48.112;11.662;2023-09-12T08:05:36;5.07;;;4.65;;
31378;SDS011;61664;48.112;11.662;2023-09-12T08:08:03;4.40;;;4.10;;
31378;SDS011;61664;48.112;11.662;2023-09-12T08:10:30;4.40;;;4.10;;
31378;SDS011;61664;48.112;11.662;2023-09-12T08:12:57;4.97;;;4.68;;
31378;SDS011;61664;48.112;11.662;2023-09-12T08:15:24;4.43;;;4.05;;
31378;SDS011;61664;48.112;11.662;2023-09-12T08:17:51;4.85;;;4.50;;
31378;SDS011;61664;48.112;11.662;2023-09-12T08:20:20;7.97;;;4.03;;
31378;SDS011;61664;48.112;11.662;2023-09-12T08:22:47;4.28;;;3.97;;
31378;SDS011;61664;48.112;11.662;2023-09-12T08:25:15;4.43;;;4.13;;
31378;SDS011;61664;48.112;11.662;2023-09-12T08:27:42;4.50;;;4.20;;
31378;SDS011;61664;48.112;11.662;2023-09-12T08:30:10;4.97;;;4.28;;
31378;SDS011;61664;48.112;11.662;2023-09-12T08:32:40;3.95;;;3.65;;
31378;SDS011;61664;48.112;11.662;2023-09-12T08:35:11;4.38;;;4.07;;
31378;SDS011;61664;48.112;11.662;2023-09-12T08:37:40;4.30;;;4.03;;
31378;SDS011;61664;48.112;11.662;2023-09-12T08:40:08;4.18;;;3.97;;
31378;SDS011;61664;48.112;11.662;2023-09-12T08:42:41;4.10;;;3.90;;
31378;SDS011;61664;48.112;11.662;2023-09-12T08:45:14;3.92;;;3.72;;
31378;SDS011;61664;48.112;11.662;2023-09-12T08:47:44;4.10;;;3.85;;
31378;SDS011;61664;48.112;11.662;2023-09-12T08:50:16;4.47;;;4.18;;
31378;SDS011;61664;48.112;11.662;2023-09-12T08:52:45;4.65;;;4.30;;
31378;SDS011;61664;48.112;11.662;2023-09-12T08:55:31;4.78;;;4.35;;
31378;SDS011;61664;48.112;11.662;2023-09-12T08:57:59;4.35;;;4.15;;
31378;SDS011;61664;48.112;11.662;2023-09-12T09:00:29;4.18;;;3.97;;
31378;SDS011;61664;48.112;11.662;2023-09-12T09:02:57;4.22;;;3.92;;
31378;SDS011;61664;48.112;11.662;2023-09-12T09:05:25;4.03;;;3.83;;
31378;SDS011;61664;48.112;11.662;2023-09-12T09:07:55;4.30;;;3.90;;
31378;SDS011;61664;48.112;11.662;2023-09-12T09:10:23;4.15;;;3.95;;
31378;SDS011;61664;48.112;11.662;2023-09-12T09:13:12;5.82;;;3.88;;
31378;SDS011;61664;48.112;11.662;2023-09-12T09:15:39;3.55;;;3.35;;
31378;SDS011;61664;48.112;11.662;2023-09-12T09:18:08;4.40;;;4.10;;
31378;SDS011;61664;48.112;11.662;2023-09-12T09:20:39;3.97;;;3.75;;
31378;SDS011;61664;48.112;11.662;2023-09-12T09:23:08;3.90;;;3.60;;
31378;SDS011;61664;48.112;11.662;2023-09-12T09:25:41;4.47;;;4.07;;
31378;SDS011;61664;48.112;11.662;2023-09-12T09:28:18;4.00;;;3.70;;
31378;SDS011;61664;48.112;11.662;2023-09-12T09:30:48;3.97;;;3.78;;
31378;SDS011;61664;48.112;11.662;2023-09-12T09:33:21;4.05;;;3.83;;
31378;SDS011;61664;48.112;11.662;2023-09-12T09:35:49;4.22;;;4.00;;
31378;SDS011;61664;48.112;11.662;2023-09-12T09:38:21;4.30;;;4.00;;
31378;SDS011;61664;48.112;11.662;2023-09-12T09:40:49;3.75;;;3.53;;
31378;SDS011;61664;48.112;11.662;2023-09-12T09:43:20;3.90;;;3.65;;
31378;SDS011;61664;48.112;11.662;2023-09-12T09:45:48;3.35;;;3.22;;
31378;SDS011;61664;48.112;11.662;2023-09-12T09:48:20;3.47;;;3.17;;
31378;SDS011;61664;48.112;11.662;2023-09-12T09:50:48;3.28;;;3.08;;
31378;SDS011;61664;48.112;11.662;2023-09-12T09:53:15;4.20;;;3.80;;
31378;SDS011;61664;48.112;11.662;2023-09-12T09:55:42;3.55;;;3.35;;
31378;SDS011;61664;48.112;11.662;2023-09-12T09:58:14;3.67;;;3.38;;
31378;SDS011;61664;48.112;11.662;2023-09-12T10:00:44;3.90;;;3.70;;
31378;SDS011;61664;48.112;11.662;2023-09-12T10:03:15;4.18;;;3.95;;
31378;SDS011;61664;48.112;11.662;2023-09-12T10:05:46;3.53;;;3.17;;
31378;SDS011;61664;48.112;11.662;2023-09-12T10:08:17;3.88;;;3.67;;
31378;SDS011;61664;48.112;11.662;2023-09-12T10:10:46;3.40;;;3.25;;
31378;SDS011;61664;48.112;11.662;2023-09-12T10:13:14;3.85;;;3.65;;
31378;SDS011;61664;48.112;11.662;2023-09-12T10:15:45;3.53;;;3.33;;
31378;SDS011;61664;48.112;11.662;2023-09-12T10:18:14;4.03;;;3.83;;
31378;SDS011;61664;48.112;11.662;2023-09-12T10:20:52;3.40;;;3.20;;
31378;SDS011;61664;48.112;11.662;2023-09-12T10:23:30;3.85;;;3.55;;
31378;SDS011;61664;48.112;11.662;2023-09-12T10:26:13;3.60;;;3.40;;
31378;SDS011;61664;48.112;11.662;2023-09-12T10:28:41;4.22;;;3.50;;
31378;SDS011;61664;48.112;11.662;2023-09-12T10:31:11;3.72;;;3.53;;
31378;SDS011;61664;48.112;11.662;2023-09-12T10:33:39;3.73;;;3.53;;
31378;SDS011;61664;48.112;11.662;2023-09-12T10:36:08;3.60;;;3.40;;
31378;SDS011;61664;48.112;11.662;2023-09-12T10:38:38;3.80;;;3.58;;
31378;SDS011;61664;48.112;11.662;2023-09-12T10:41:14;3.47;;;3.25;;
31378;SDS011;61664;48.112;11.662;2023-09-12T10:43:42;3.85;;;3.65;;
31378;SDS011;61664;48.112;11.662;2023-09-12T10:46:16;3.92;;;3.67;;
31378;SDS011;61664;48.112;11.662;2023-09-12T10:48:43;3.83;;;3.58;;
31378;SDS011;61664;48.112;11.662;2023-09-12T10:51:11;3.50;;;3.30;;
31378;SDS011;61664;48.112;11.662;2023-09-12T10:53:45;3.60;;;3.40;;
31378;SDS011;61664;48.112;11.662;2023-09-12T10:56:20;5.03;;;3.33;;
31378;SDS011;61664;48.112;11.662;2023-09-12T11:01:31;3.58;;;3.38;;
31378;SDS011;61664;48.112;11.662;2023-09-12T11:06:46;3.58;;;3.38;;
31378;SDS011;61664;48.112;11.662;2023-09-12T11:11:45;4.13;;;3.83;;
31378;SDS011;61664;48.112;11.662;2023-09-12T11:14:14;3.58;;;3.38;;
31378;SDS011;61664;48.112;11.662;2023-09-12T11:16:43;4.07;;;3.78;;
31378;SDS011;61664;48.112;11.662;2023-09-12T11:19:51;4.07;;;3.67;;
31378;SDS011;61664;48.112;11.662;2023-09-12T11:22:23;3.50;;;3.30;;
31378;SDS011;61664;48.112;11.662;2023-09-12T11:24:57;3.72;;;3.53;;
31378;SDS011;61664;48.112;11.662;2023-09-12T11:27:32;4.18;;;3.97;;
31378;SDS011;61664;48.112;11.662;2023-09-12T11:30:26;3.92;;;3.72;;
31378;SDS011;61664;48.112;11.662;2023-09-12T11:32:57;3.83;;;3.60;;
31378;SDS011;61664;48.112;11.662;2023-09-12T11:35:27;3.70;;;3.40;;
31378;SDS011;61664;48.112;11.662;2023-09-12T11:37:58;3.80;;;3.60;;
31378;SDS011;61664;48.112;11.662;2023-09-12T11:40:48;3.47;;;3.28;;
31378;SDS011;61664;48.112;11.662;2023-09-12T11:43:22;3.58;;;3.38;;
31378;SDS011;61664;48.112;11.662;2023-09-12T11:45:52;3.28;;;3.08;;
31378;SDS011;61664;48.112;11.662;2023-09-12T11:48:21;3.23;;;3.03;;
31378;SDS011;61664;48.112;11.662;2023-09-12T11:50:55;4.13;;;2.72;;
31378;SDS011;61664;48.112;11.662;2023-09-12T11:53:24;3.05;;;2.95;;
31378;SDS011;61664;48.112;11.662;2023-09-12T11:58:23;3.05;;;2.85;;
31378;SDS011;61664;48.112;11.662;2023-09-12T12:00:53;3.58;;;3.28;;
31378;SDS011;61664;48.112;11.662;2023-09-12T12:03:23;3.67;;;3.47;;
31378;SDS011;61664;48.112;11.662;2023-09-12T12:05:53;3.33;;;3.13;;
31378;SDS011;61664;48.112;11.662;2023-09-12T12:08:22;6.53;;;3.53;;
31378;SDS011;61664;48.112;11.662;2023-09-12T12:10:57;3.83;;;3.35;;
31378;SDS011;61664;48.112;11.662;2023-09-12T12:13:26;3.70;;;3.40;;
31378;SDS011;61664;48.112;11.662;2023-09-12T12:15:55;4.28;;;3.17;;
31378;SDS011;61664;48.112;11.662;2023-09-12T12:18:23;3.90;;;3.70;;
31378;SDS011;61664;48.112;11.662;2023-09-12T12:20:51;3.58;;;3.28;;
31378;SDS011;61664;48.112;11.662;2023-09-12T12:23:18;3.45;;;3.25;;
31378;SDS011;61664;48.112;11.662;2023-09-12T12:25:45;3.67;;;3.47;;
31378;SDS011;61664;48.112;11.662;2023-09-12T12:28:12;3.88;;;3.47;;
31378;SDS011;61664;48.112;11.662;2023-09-12T12:30:39;3.80;;;3.60;;
31378;SDS011;61664;48.112;11.662;2023-09-12T12:33:07;3.92;;;3.63;;
31378;SDS011;61664;48.112;11.662;2023-09-12T12:36:04;3.20;;;3.00;;
31378;SDS011;61664;48.112;11.662;2023-09-12T12:38:35;3.20;;;3.00;;
31378;SDS011;61664;48.112;11.662;2023-09-12T12:41:21;4.47;;;3.80;;
31378;SDS011;61664;48.112;11.662;2023-09-12T12:44:05;4.07;;;3.78;;
31378;SDS011;61664;48.112;11.662;2023-09-12T12:46:32;3.72;;;3.42;;
31378;SDS011;61664;48.112;11.662;2023-09-12T12:49:00;3.25;;;3.08;;
31378;SDS011;61664;48.112;11.662;2023-09-12T12:51:27;3.40;;;3.20;;
31378;SDS011;61664;48.112;11.662;2023-09-12T12:54:03;3.50;;;3.30;;
31378;SDS011;61664;48.112;11.662;2023-09-12T12:56:32;3.25;;;2.95;;
31378;SDS011;61664;48.112;11.662;2023-09-12T12:59:00;3.67;;;3.47;;
31378;SDS011;61664;48.112;11.662;2023-09-12T13:01:30;4.25;;;3.30;;
31378;SDS011;61664;48.112;11.662;2023-09-12T13:03:57;3.53;;;3.25;;
31378;SDS011;61664;48.112;11.662;2023-09-12T13:06:24;4.40;;;3.28;;
31378;SDS011;61664;48.112;11.662;2023-09-12T13:08:54;3.50;;;3.30;;
31378;SDS011;61664;48.112;11.662;2023-09-12T13:11:23;3.07;;;2.90;;
31378;SDS011;61664;48.112;11.662;2023-09-12T13:13:50;3.47;;;3.28;;
31378;SDS011;61664;48.112;11.662;2023-09-12T13:16:18;3.30;;;3.10;;
31378;SDS011;61664;48.112;11.662;2023-09-12T13:18:45;3.40;;;3.20;;
31378;SDS011;61664;48.112;11.662;2023-09-12T13:21:12;3.22;;;3.05;;
31378;SDS011;61664;48.112;11.662;2023-09-12T13:23:39;3.67;;;3.38;;
31378;SDS011;61664;48.112;11.662;2023-09-12T13:26:07;3.67;;;3.45;;
31378;SDS011;61664;48.112;11.662;2023-09-12T13:28:36;3.20;;;3.00;;
31378;SDS011;61664;48.112;11.662;2023-09-12T13:31:03;3.80;;;3.60;;
31378;SDS011;61664;48.112;11.662;2023-09-12T13:33:30;3.70;;;3.50;;
31378;SDS011;61664;48.112;11.662;2023-09-12T13:35:58;3.83;;;3.53;;
31378;SDS011;61664;48.112;11.662;2023-09-12T13:38:25;3.92;;;3.47;;
31378;SDS011;61664;48.112;11.662;2023-09-12T13:40:52;3.22;;;3.03;;
31378;SDS011;61664;48.112;11.662;2023-09-12T13:43:19;3.83;;;3.63;;
31378;SDS011;61664;48.112;11.662;2023-09-12T13:45:46;3.63;;;3.42;;
31378;SDS011;61664;48.112;11.662;2023-09-12T13:48:13;3.30;;;3.05;;
31378;SDS011;61664;48.112;11.662;2023-09-12T13:50:40;5.10;;;3.85;;
31378;SDS011;61664;48.112;11.662;2023-09-12T13:53:09;4.50;;;4.20;;
31378;SDS011;61664;48.112;11.662;2023-09-12T13:55:37;3.80;;;3.60;;
31378;SDS011;61664;48.112;11.662;2023-09-12T13:58:24;3.38;;;3.25;;
31378;SDS011;61664;48.112;11.662;2023-09-12T14:01:01;2.97;;;2.83;;
31378;SDS011;61664;48.112;11.662;2023-09-12T14:03:29;3.25;;;3.05;;
31378;SDS011;61664;48.112;11.662;2023-09-12T14:06:06;3.28;;;3.08;;
31378;SDS011;61664;48.112;11.662;2023-09-12T14:08:33;3.88;;;3.58;;
31378;SDS011;61664;48.112;11.662;2023-09-12T14:11:00;3.67;;;3.47;;
31378;SDS011;61664;48.112;11.662;2023-09-12T14:13:27;3.63;;;3.33;;
31378;SDS011;61664;48.112;11.662;2023-09-12T14:15:54;3.88;;;3.67;;
31378;SDS011;61664;48.112;11.662;2023-09-12T14:18:22;4.63;;;3.90;;
31378;SDS011;61664;48.112;11.662;2023-09-12T14:20:51;3.63;;;3.43;;
31378;SDS011;61664;48.112;11.662;2023-09-12T14:23:19;3.67;;;3.50;;
31378;SDS011;61664;48.112;11.662;2023-09-12T14:25:48;3.78;;;3.47;;
31378;SDS011;61664;48.112;11.662;2023-09-12T14:28:15;3.42;;;3.22;;
31378;SDS011;61664;48.112;11.662;2023-09-12T14:30:44;3.67;;;3.45;;
31378;SDS011;61664;48.112;11.662;2023-09-12T14:33:12;4.07;;;3.85;;
31378;SDS011;61664;48.112;11.662;2023-09-12T14:35:43;3.58;;;3.38;;
31378;SDS011;61664;48.112;11.662;2023-09-12T14:38:11;3.53;;;3.33;;
31378;SDS011;61664;48.112;11.662;2023-09-12T14:40:38;4.25;;;4.00;;
31378;SDS011;61664;48.112;11.662;2023-09-12T14:43:10;3.67;;;3.47;;
31378;SDS011;61664;48.112;11.662;2023-09-12T14:45:37;3.50;;;3.30;;
31378;SDS011;61664;48.112;11.662;2023-09-12T14:48:04;3.90;;;3.60;;
31378;SDS011;61664;48.112;11.662;2023-09-12T14:50:33;3.70;;;3.47;;
31378;SDS011;61664;48.112;11.662;2023-09-12T14:53:10;3.90;;;3.70;;
31378;SDS011;61664;48.112;11.662;2023-09-12T14:55:39;3.63;;;3.42;;
31378;SDS011;61664;48.112;11.662;2023-09-12T14:58:06;3.40;;;3.20;;
31378;SDS011;61664;48.112;11.662;2023-09-12T15:00:33;3.78;;;3.58;;
31378;SDS011;61664;48.112;11.662;2023-09-12T15:03:04;3.58;;;3.38;;